BBC306 LIRF-VGHS
Flight info
| Callsign | BBC306 |
|---|---|
| Flight time | N/A |
| Altitude | 36000 |
| Route | OKUNO L5 ATRUP DCT PES DCT ETRIN DCT XOLTA DCT RAMAP DCT NISVA Q13 UDROS UM859 KARDE UN644 ROLIN N644 LAGAS DCT DISKA M737 VERCA M747 SUBUT T923 ERLEV M11 RODAR A909 TUNEK DCT TUGTA A909 LEMOD N644 DI M875 JHANG DCT ENRIR DCT PATNI DCT SULOM M890 CHG W35 ONOGI DCT SP DCT GUVGU DCT BRL J98 TATAK DCT KEVOD J71 PPT A201 RAJ G463 IDLOX |
| Aircraft | B789/H-SDE1E2E3FGHIJ2J3J4J5M1RWXY/LB1D1 |
Departure
| Time | 2026-05-07 11:13 |
|---|---|
| Airport | Rome–Fiumicino Leonardo da Vinci International Airport (LIRF) |
Arrival
| Time | N/A |
|---|---|
| Airport | Hazrat Shahjalal International Airport (VGHS) |
| Time | Latitude | Longitude | Altitude | Speed | Heading |
|---|---|---|---|---|---|
| 2026-05-07 10:33 | 41.78805 | 12.24348 | 22 ft | 0 kts | 342° |
| 2026-05-07 10:54 | 41.78790 | 12.24354 | 20 ft | 4 kts | 342° |
| 2026-05-07 10:55 | 41.78766 | 12.24364 | 22 ft | 2 kts | 342° |
| 2026-05-07 10:55 | 41.78746 | 12.24377 | 23 ft | 4 kts | 304° |
| 2026-05-07 10:55 | 41.78739 | 12.24408 | 23 ft | 4 kts | 259° |
| 2026-05-07 10:55 | 41.78746 | 12.24441 | 24 ft | 4 kts | 252° |
| 2026-05-07 10:56 | 41.78754 | 12.24474 | 21 ft | 2 kts | 252° |
| 2026-05-07 10:56 | 41.78755 | 12.24477 | 21 ft | 0 kts | 252° |
| 2026-05-07 11:00 | 41.78747 | 12.24445 | 24 ft | 7 kts | 252° |
| 2026-05-07 11:01 | 41.78727 | 12.24357 | 22 ft | 11 kts | 253° |
| 2026-05-07 11:01 | 41.78705 | 12.24260 | 20 ft | 11 kts | 253° |
| 2026-05-07 11:01 | 41.78697 | 12.24172 | 20 ft | 7 kts | 297° |
| 2026-05-07 11:01 | 41.78737 | 12.24143 | 20 ft | 7 kts | 341° |
| 2026-05-07 11:02 | 41.78794 | 12.24119 | 22 ft | 11 kts | 343° |
| 2026-05-07 11:02 | 41.78877 | 12.24085 | 20 ft | 14 kts | 343° |
| 2026-05-07 11:02 | 41.78975 | 12.24045 | 20 ft | 15 kts | 343° |
| 2026-05-07 11:02 | 41.79083 | 12.24001 | 22 ft | 17 kts | 343° |
| 2026-05-07 11:03 | 41.79190 | 12.23953 | 20 ft | 16 kts | 341° |
| 2026-05-07 11:03 | 41.79293 | 12.23909 | 20 ft | 16 kts | 342° |
| 2026-05-07 11:03 | 41.79395 | 12.23866 | 20 ft | 15 kts | 342° |
| 2026-05-07 11:03 | 41.79496 | 12.23824 | 20 ft | 15 kts | 343° |
| 2026-05-07 11:04 | 41.79592 | 12.23784 | 21 ft | 14 kts | 343° |
| 2026-05-07 11:04 | 41.79685 | 12.23746 | 20 ft | 14 kts | 343° |
| 2026-05-07 11:04 | 41.79778 | 12.23707 | 22 ft | 14 kts | 342° |
| 2026-05-07 11:04 | 41.79867 | 12.23674 | 20 ft | 13 kts | 356° |
| 2026-05-07 11:05 | 41.79913 | 12.23734 | 20 ft | 10 kts | 73° |
| 2026-05-07 11:05 | 41.79938 | 12.23835 | 20 ft | 13 kts | 70° |
| 2026-05-07 11:05 | 41.79973 | 12.23964 | 22 ft | 16 kts | 71° |
| 2026-05-07 11:05 | 41.79997 | 12.24112 | 20 ft | 17 kts | 70° |
| 2026-05-07 11:06 | 41.80038 | 12.24260 | 20 ft | 17 kts | 70° |
| 2026-05-07 11:06 | 41.80077 | 12.24404 | 20 ft | 17 kts | 70° |
| 2026-05-07 11:06 | 41.80117 | 12.24548 | 20 ft | 16 kts | 70° |
| 2026-05-07 11:06 | 41.80157 | 12.24694 | 20 ft | 17 kts | 70° |
| 2026-05-07 11:07 | 41.80197 | 12.24843 | 20 ft | 17 kts | 73° |
| 2026-05-07 11:07 | 41.80206 | 12.25011 | 20 ft | 19 kts | 90° |
| 2026-05-07 11:07 | 41.80236 | 12.25180 | 21 ft | 19 kts | 69° |
| 2026-05-07 11:07 | 41.80267 | 12.25290 | 20 ft | 19 kts | 69° |
| 2026-05-07 11:08 | 41.80314 | 12.25461 | 20 ft | 20 kts | 70° |
| 2026-05-07 11:08 | 41.80363 | 12.25638 | 22 ft | 20 kts | 69° |
| 2026-05-07 11:08 | 41.80413 | 12.25813 | 20 ft | 20 kts | 69° |
| 2026-05-07 11:08 | 41.80460 | 12.25990 | 22 ft | 20 kts | 70° |
| 2026-05-07 11:09 | 41.80508 | 12.26168 | 20 ft | 20 kts | 70° |
| 2026-05-07 11:09 | 41.80557 | 12.26343 | 20 ft | 20 kts | 69° |
| 2026-05-07 11:09 | 41.80604 | 12.26509 | 20 ft | 19 kts | 69° |
| 2026-05-07 11:09 | 41.80648 | 12.26670 | 21 ft | 18 kts | 70° |
| 2026-05-07 11:10 | 41.80691 | 12.26824 | 22 ft | 17 kts | 70° |
| 2026-05-07 11:10 | 41.80732 | 12.26972 | 20 ft | 17 kts | 70° |
| 2026-05-07 11:10 | 41.80777 | 12.27109 | 20 ft | 15 kts | 47° |
| 2026-05-07 11:10 | 41.80861 | 12.27119 | 20 ft | 12 kts | 338° |
| 2026-05-07 11:11 | 41.80935 | 12.27079 | 21 ft | 11 kts | 338° |
| 2026-05-07 11:11 | 41.80979 | 12.27021 | 20 ft | 7 kts | 273° |
| 2026-05-07 11:11 | 41.80968 | 12.26955 | 19 ft | 9 kts | 250° |
| 2026-05-07 11:11 | 41.80963 | 12.26937 | 20 ft | 3 kts | 250° |
| 2026-05-07 11:12 | 41.80905 | 12.26729 | 20 ft | 53 kts | 249° |
| 2026-05-07 11:12 | 41.80700 | 12.25983 | 27 ft | 115 kts | 249° |
| 2026-05-07 11:12 | 41.80355 | 12.24745 | 26 ft | 166 kts | 250° |
| 2026-05-07 11:12 | 41.79929 | 12.23204 | 484 ft | 176 kts | 253° |
| 2026-05-07 11:13 | 41.79476 | 12.21671 | 1184 ft | 179 kts | 234° |
| 2026-05-07 11:13 | 41.78708 | 12.20398 | 1959 ft | 176 kts | 220° |
| 2026-05-07 11:13 | 41.77730 | 12.19240 | 2349 ft | 195 kts | 217° |
| 2026-05-07 11:13 | 41.76691 | 12.18088 | 3154 ft | 193 kts | 217° |
| 2026-05-07 11:14 | 41.75591 | 12.17041 | 3826 ft | 195 kts | 202° |
| 2026-05-07 11:14 | 41.74213 | 12.16778 | 4280 ft | 213 kts | 182° |
| 2026-05-07 11:14 | 41.72634 | 12.16862 | 4557 ft | 239 kts | 179° |
| 2026-05-07 11:14 | 41.70912 | 12.16981 | 4915 ft | 259 kts | 180° |
| 2026-05-07 11:15 | 41.69114 | 12.17074 | 5865 ft | 260 kts | 180° |
| 2026-05-07 11:15 | 41.67287 | 12.17152 | 6670 ft | 265 kts | 180° |
| 2026-05-07 11:15 | 41.65432 | 12.17237 | 7475 ft | 269 kts | 180° |
| 2026-05-07 11:15 | 41.63546 | 12.17328 | 8275 ft | 273 kts | 181° |
| 2026-05-07 11:16 | 41.61651 | 12.17417 | 9038 ft | 278 kts | 181° |
| 2026-05-07 11:16 | 41.59703 | 12.17509 | 9831 ft | 281 kts | 181° |
| 2026-05-07 11:16 | 41.57714 | 12.17601 | 10300 ft | 296 kts | 181° |
| 2026-05-07 11:16 | 41.55552 | 12.17705 | 10401 ft | 324 kts | 179° |
| 2026-05-07 11:17 | 41.53276 | 12.18531 | 10470 ft | 357 kts | 155° |
| 2026-05-07 11:17 | 41.51263 | 12.20632 | 10875 ft | 376 kts | 131° |
| 2026-05-07 11:17 | 41.49955 | 12.23629 | 11609 ft | 385 kts | 111° |
| 2026-05-07 11:17 | 41.49468 | 12.27163 | 12280 ft | 393 kts | 90° |
| 2026-05-07 11:18 | 41.49832 | 12.30803 | 12920 ft | 399 kts | 77° |
| 2026-05-07 11:18 | 41.50595 | 12.34384 | 13597 ft | 404 kts | 72° |
| 2026-05-07 11:18 | 41.51584 | 12.37887 | 14173 ft | 408 kts | 63° |
| 2026-05-07 11:18 | 41.52959 | 12.40592 | 14673 ft | 411 kts | 47° |
| 2026-05-07 11:19 | 41.55138 | 12.43068 | 15240 ft | 413 kts | 29° |